createdAt,value
2022-09-14T00:00:32.840Z,18.29
2022-09-14T00:01:32.866Z,18.28
2022-09-14T00:02:32.992Z,18.28
2022-09-14T00:03:32.692Z,18.28
2022-09-14T00:04:32.660Z,18.29
2022-09-14T00:05:32.593Z,18.31
2022-09-14T00:06:32.542Z,18.35
2022-09-14T00:07:32.511Z,18.29
2022-09-14T00:08:32.445Z,18.33
2022-09-14T00:09:32.415Z,18.26
2022-09-14T00:10:32.352Z,18.29
2022-09-14T00:11:32.323Z,18.25
2022-09-14T00:12:32.249Z,18.34
2022-09-14T00:13:32.194Z,18.29
2022-09-14T00:14:32.147Z,18.28
2022-09-14T00:15:32.113Z,18.31
2022-09-14T00:16:32.126Z,18.25
2022-09-14T00:17:32.005Z,18.23
2022-09-14T00:18:31.963Z,18.16
2022-09-14T00:19:31.916Z,18.10
2022-09-14T00:20:31.852Z,18.07
2022-09-14T00:21:31.807Z,18.05
2022-09-14T00:22:31.753Z,18.08
2022-09-14T00:23:31.718Z,18.01
2022-09-14T00:24:31.652Z,18.08
2022-09-14T00:25:31.608Z,18.07
2022-09-14T00:26:31.556Z,18.11
2022-09-14T00:27:31.529Z,18.08
2022-09-14T00:28:31.457Z,18.05
2022-09-14T00:29:31.425Z,18.11
2022-09-14T00:30:31.357Z,18.04
2022-09-14T00:31:31.403Z,18.04
2022-09-14T00:32:31.260Z,18.03
2022-09-14T00:33:31.205Z,18.03
2022-09-14T00:34:31.172Z,18.00
2022-09-14T00:35:31.121Z,17.87
2022-09-14T00:36:31.058Z,17.86
2022-09-14T00:37:31.010Z,17.98
2022-09-14T00:38:30.959Z,17.95
2022-09-14T00:39:30.925Z,17.94
2022-09-14T00:40:30.885Z,18.00
2022-09-14T00:41:30.817Z,18.00
2022-09-14T00:42:30.763Z,18.00
2022-09-14T00:43:30.711Z,18.00
2022-09-14T00:44:30.681Z,18.00
2022-09-14T00:45:30.682Z,17.98
2022-09-14T00:46:30.578Z,18.03
2022-09-14T00:47:30.515Z,18.08
2022-09-14T00:48:30.877Z,17.94
2022-09-14T00:49:30.421Z,17.94
2022-09-14T00:50:30.365Z,17.92
2022-09-14T00:51:30.325Z,17.92
2022-09-14T00:52:30.280Z,17.90
2022-09-14T00:53:30.221Z,17.86
2022-09-14T00:54:30.211Z,17.86
2022-09-14T00:55:30.119Z,17.87
2022-09-14T00:56:30.080Z,17.89
2022-09-14T00:57:30.023Z,17.89
2022-09-14T00:58:29.970Z,17.97
2022-09-14T00:59:29.943Z,18.01
2022-09-14T01:00:29.871Z,17.87
2022-09-14T01:01:29.931Z,17.85
2022-09-14T01:02:29.834Z,17.80
2022-09-14T01:03:29.721Z,17.79
2022-09-14T01:04:29.676Z,17.78
2022-09-14T01:05:29.621Z,17.74
2022-09-14T01:06:29.584Z,17.76
2022-09-14T01:07:29.524Z,17.76
2022-09-14T01:08:29.473Z,17.76
2022-09-14T01:09:29.420Z,17.76
2022-09-14T01:10:29.393Z,17.71
2022-09-14T01:11:29.323Z,17.68
2022-09-14T01:12:29.289Z,17.74
2022-09-14T01:13:29.222Z,17.68
2022-09-14T01:14:29.176Z,17.72
2022-09-14T01:15:29.207Z,17.65
2022-09-14T01:16:29.132Z,17.59
2022-09-14T01:17:29.036Z,17.72
2022-09-14T01:18:28.970Z,17.59
2022-09-14T01:19:28.922Z,17.60
2022-09-14T01:20:28.873Z,17.65
2022-09-14T01:21:28.835Z,17.63
2022-09-14T01:22:28.776Z,17.65
2022-09-14T01:23:28.721Z,17.74
2022-09-14T01:24:28.673Z,17.68
2022-09-14T01:25:28.621Z,17.72
2022-09-14T01:26:28.591Z,17.76
2022-09-14T01:27:28.526Z,17.76
2022-09-14T01:28:28.474Z,17.79
2022-09-14T01:29:28.421Z,17.87
2022-09-14T01:30:28.374Z,17.76
2022-09-14T01:31:28.389Z,17.70
2022-09-14T01:32:28.273Z,17.72
2022-09-14T01:33:28.224Z,17.68
2022-09-14T01:34:28.172Z,17.70
2022-09-14T01:35:28.131Z,17.68
2022-09-14T01:36:28.088Z,17.59
2022-09-14T01:37:28.023Z,17.72
2022-09-14T01:38:27.972Z,17.68
2022-09-14T01:39:27.921Z,17.65
2022-09-14T01:40:27.934Z,17.57
2022-09-14T01:41:27.842Z,17.63
2022-09-14T01:42:27.773Z,17.46
2022-09-14T01:43:27.724Z,17.54
2022-09-14T01:44:27.686Z,17.54
2022-09-14T01:45:27.672Z,17.48
2022-09-14T01:46:27.570Z,17.41
2022-09-14T01:47:27.540Z,17.48
2022-09-14T01:48:27.485Z,17.46
2022-09-14T01:49:27.421Z,17.44
2022-09-14T01:50:27.375Z,17.46
2022-09-14T01:51:27.321Z,17.42
2022-09-14T01:52:27.271Z,17.45
2022-09-14T01:53:27.236Z,17.49
2022-09-14T01:54:27.173Z,17.49
2022-09-14T01:55:27.121Z,17.45
2022-09-14T01:56:27.102Z,17.51
2022-09-14T01:57:27.606Z,17.48
2022-09-14T01:58:27.580Z,17.49
2022-09-14T01:59:26.924Z,17.46
2022-09-14T02:00:26.873Z,17.42
2022-09-14T02:01:26.864Z,17.44
2022-09-14T02:02:26.816Z,17.41
2022-09-14T02:03:26.798Z,17.51
2022-09-14T02:04:26.666Z,17.42
2022-09-14T02:05:26.616Z,17.42
2022-09-14T02:06:26.584Z,17.41
2022-09-14T02:07:26.523Z,17.42
2022-09-14T02:08:26.471Z,17.46
2022-09-14T02:09:26.423Z,17.42
2022-09-14T02:10:26.368Z,17.44
2022-09-14T02:11:26.329Z,17.36
2022-09-14T02:12:26.265Z,17.34
2022-09-14T02:13:26.225Z,17.38
2022-09-14T02:14:26.164Z,17.38
2022-09-14T02:15:26.113Z,17.36
2022-09-14T02:16:26.232Z,17.36
2022-09-14T02:17:26.023Z,17.42
2022-09-14T02:18:25.976Z,17.45
2022-09-14T02:19:25.935Z,17.44
2022-09-14T02:20:25.875Z,17.41
2022-09-14T02:21:25.839Z,17.54
2022-09-14T02:22:25.761Z,17.51
2022-09-14T02:23:25.708Z,17.51
2022-09-14T02:24:25.667Z,17.45
2022-09-14T02:25:25.624Z,17.57
2022-09-14T02:26:25.567Z,17.59
2022-09-14T02:27:25.505Z,17.72
2022-09-14T02:28:25.457Z,17.57
2022-09-14T02:29:25.412Z,17.64
2022-09-14T02:30:25.356Z,17.68
2022-09-14T02:31:25.393Z,17.64
2022-09-14T02:32:25.256Z,17.72
2022-09-14T02:33:25.205Z,17.59
2022-09-14T02:34:25.173Z,17.64
2022-09-14T02:35:25.121Z,17.64
2022-09-14T02:36:25.069Z,17.63
2022-09-14T02:37:25.005Z,17.57
2022-09-14T02:38:24.959Z,17.68
2022-09-14T02:39:24.910Z,17.65
2022-09-14T02:40:24.938Z,17.56
2022-09-14T02:41:24.822Z,17.71
2022-09-14T02:42:24.755Z,17.67
2022-09-14T02:43:24.707Z,17.71
2022-09-14T02:44:24.654Z,17.68
2022-09-14T02:45:24.602Z,17.68
2022-09-14T02:46:24.614Z,17.74
2022-09-14T02:47:24.500Z,17.59
2022-09-14T02:48:24.455Z,17.65
2022-09-14T02:49:24.412Z,17.60
2022-09-14T02:50:24.354Z,17.52
2022-09-14T02:51:24.321Z,17.57
2022-09-14T02:52:24.253Z,17.52
2022-09-14T02:53:24.204Z,17.52
2022-09-14T02:54:24.191Z,17.51
2022-09-14T02:55:24.103Z,17.52
2022-09-14T02:56:24.066Z,17.56
2022-09-14T02:57:24.002Z,17.49
2022-09-14T02:58:31.674Z,17.57
2022-09-14T02:59:23.908Z,17.56
2022-09-14T03:00:23.867Z,17.46
2022-09-14T03:01:23.851Z,17.54
2022-09-14T03:02:23.824Z,17.54
2022-09-14T03:03:23.704Z,17.57
2022-09-14T03:04:23.653Z,17.56
2022-09-14T03:05:23.600Z,17.52
2022-09-14T03:06:23.564Z,17.57
2022-09-14T03:07:23.501Z,17.49
2022-09-14T03:08:23.453Z,17.63
2022-09-14T03:09:23.407Z,17.56
2022-09-14T03:10:23.351Z,17.59
2022-09-14T03:11:23.312Z,17.57
2022-09-14T03:12:23.250Z,17.49
2022-09-14T03:13:23.204Z,17.56
2022-09-14T03:14:23.155Z,17.54
2022-09-14T03:15:23.104Z,17.45
2022-09-14T03:16:23.120Z,17.48
2022-09-14T03:17:23.016Z,17.48
2022-09-14T03:18:22.952Z,17.45
2022-09-14T03:19:22.902Z,17.56
2022-09-14T03:20:22.859Z,17.49
2022-09-14T03:21:22.802Z,17.56
2022-09-14T03:22:22.768Z,17.63
2022-09-14T03:23:22.708Z,17.56
2022-09-14T03:24:22.655Z,17.57
2022-09-14T03:25:22.604Z,17.54
2022-09-14T03:26:22.558Z,17.52
2022-09-14T03:27:22.499Z,17.56
2022-09-14T03:28:22.465Z,17.64
2022-09-14T03:29:22.403Z,17.64
2022-09-14T03:30:22.374Z,17.60
2022-09-14T03:31:22.375Z,17.63
2022-09-14T03:32:22.265Z,17.63
2022-09-14T03:33:22.201Z,17.64
2022-09-14T03:34:22.149Z,17.57
2022-09-14T03:35:22.101Z,17.60
2022-09-14T03:36:22.051Z,17.60
2022-09-14T03:37:22.015Z,17.60
2022-09-14T03:38:21.949Z,17.65
2022-09-14T03:39:21.900Z,17.57
2022-09-14T03:40:22.344Z,17.63
2022-09-14T03:41:21.800Z,17.59
2022-09-14T03:42:21.761Z,17.70
2022-09-14T03:43:21.703Z,17.70
2022-09-14T03:44:21.667Z,17.56
2022-09-14T03:45:21.634Z,17.60
2022-09-14T03:46:21.627Z,17.56
2022-09-14T03:47:21.520Z,17.60
2022-09-14T03:48:21.468Z,17.48
2022-09-14T03:49:21.401Z,17.59
2022-09-14T03:50:21.359Z,17.52
2022-09-14T03:51:21.302Z,17.45
2022-09-14T03:52:21.252Z,17.49
2022-09-14T03:53:21.212Z,17.54
2022-09-14T03:54:21.151Z,17.49
2022-09-14T03:55:21.099Z,17.54
2022-09-14T03:56:21.049Z,17.49
2022-09-14T03:57:21.002Z,17.57
2022-09-14T03:58:20.969Z,17.48
2022-09-14T03:59:20.902Z,17.52
2022-09-14T04:00:20.852Z,17.42
2022-09-14T04:01:21.831Z,17.51
2022-09-14T04:02:20.763Z,17.54
2022-09-14T04:03:20.763Z,17.48
2022-09-14T04:04:20.687Z,17.54
2022-09-14T04:05:22.006Z,17.56
2022-09-14T04:06:20.565Z,17.48
2022-09-14T04:07:20.507Z,17.48
2022-09-14T04:08:20.447Z,17.48
2022-09-14T04:09:20.413Z,17.45
2022-09-14T04:10:20.361Z,17.45
2022-09-14T04:11:20.394Z,17.45
2022-09-14T04:12:20.251Z,17.41
2022-09-14T04:13:20.212Z,17.46
2022-09-14T04:14:20.147Z,17.44
2022-09-14T04:15:20.097Z,17.45
2022-09-14T04:16:20.190Z,17.41
2022-09-14T04:17:19.998Z,17.45
2022-09-14T04:18:19.962Z,17.44
2022-09-14T04:19:19.907Z,17.42
2022-09-14T04:20:19.847Z,17.45
2022-09-14T04:21:19.812Z,17.44
2022-09-14T04:22:19.758Z,17.48
2022-09-14T04:23:19.695Z,17.41
2022-09-14T04:24:19.792Z,17.33
2022-09-14T04:25:19.593Z,17.44
2022-09-14T04:26:19.541Z,17.38
2022-09-14T04:27:19.513Z,17.31
2022-09-14T04:28:20.771Z,17.29
2022-09-14T04:29:19.395Z,17.42
2022-09-14T04:30:19.344Z,17.39
2022-09-14T04:31:19.377Z,17.26
2022-09-14T04:32:19.242Z,17.24
2022-09-14T04:33:19.191Z,17.26
2022-09-14T04:34:19.153Z,17.27
2022-09-14T04:35:19.093Z,17.29
2022-09-14T04:36:19.039Z,17.29
2022-09-14T04:37:18.997Z,17.26
2022-09-14T04:38:18.953Z,17.24
2022-09-14T04:39:18.900Z,17.30
2022-09-14T04:40:18.855Z,17.29
2022-09-14T04:41:18.787Z,17.30
2022-09-14T04:42:18.735Z,17.26
2022-09-14T04:43:18.684Z,17.29
2022-09-14T04:44:18.673Z,17.31
2022-09-14T04:45:18.586Z,17.30
2022-09-14T04:46:18.606Z,17.29
2022-09-14T04:47:18.486Z,17.24
2022-09-14T04:48:18.434Z,17.24
2022-09-14T04:49:18.382Z,17.31
2022-09-14T04:50:18.346Z,17.31
2022-09-14T04:51:18.301Z,17.26
2022-09-14T04:52:18.232Z,17.24
2022-09-14T04:53:18.194Z,17.27
2022-09-14T04:54:18.128Z,17.27
2022-09-14T04:55:18.081Z,17.23
2022-09-14T04:56:18.043Z,17.23
2022-09-14T04:57:17.979Z,17.29
2022-09-14T04:58:17.931Z,17.27
2022-09-14T04:59:17.876Z,17.27
2022-09-14T05:00:17.826Z,17.23
2022-09-14T05:01:17.797Z,17.26
2022-09-14T05:02:17.859Z,17.24
2022-09-14T05:03:17.750Z,17.27
2022-09-14T05:04:17.686Z,17.30
2022-09-14T05:05:17.586Z,17.30
2022-09-14T05:06:17.523Z,17.30
2022-09-14T05:07:17.473Z,17.31
2022-09-14T05:08:17.419Z,17.29
2022-09-14T05:09:17.396Z,17.26
2022-09-14T05:10:17.322Z,17.24
2022-09-14T05:11:17.285Z,17.39
2022-09-14T05:12:17.242Z,17.34
2022-09-14T05:13:17.169Z,17.38
2022-09-14T05:14:17.120Z,17.38
2022-09-14T05:15:17.078Z,17.36
2022-09-14T05:16:17.130Z,17.45
2022-09-14T05:17:16.980Z,17.33
2022-09-14T05:18:16.917Z,17.42
2022-09-14T05:19:16.867Z,17.33
2022-09-14T05:20:16.824Z,17.23
2022-09-14T05:21:16.764Z,17.45
2022-09-14T05:22:16.728Z,17.31
2022-09-14T05:23:16.664Z,17.36
2022-09-14T05:24:16.613Z,17.42
2022-09-14T05:25:16.578Z,17.27
2022-09-14T05:26:16.512Z,17.31
2022-09-14T05:27:16.462Z,17.29
2022-09-14T05:28:16.412Z,17.36
2022-09-14T05:29:16.385Z,17.33
2022-09-14T05:30:16.308Z,17.38
2022-09-14T05:31:16.386Z,17.39
2022-09-14T05:32:16.215Z,17.30
2022-09-14T05:33:16.160Z,17.36
2022-09-14T05:34:16.121Z,17.31
2022-09-14T05:35:16.059Z,17.41
2022-09-14T05:36:16.021Z,17.38
2022-09-14T05:37:15.959Z,17.41
2022-09-14T05:38:15.911Z,17.38
2022-09-14T05:39:19.770Z,17.38
2022-09-14T05:40:15.874Z,17.36
2022-09-14T05:41:15.777Z,17.33
2022-09-14T05:42:15.708Z,17.45
2022-09-14T05:43:15.657Z,17.38
2022-09-14T05:44:15.610Z,17.33
2022-09-14T05:45:15.555Z,17.29
2022-09-14T05:46:15.590Z,17.39
2022-09-14T05:47:15.475Z,17.42
2022-09-14T05:48:15.405Z,17.36
2022-09-14T05:49:15.356Z,17.39
2022-09-14T05:50:15.305Z,17.38
2022-09-14T05:51:15.267Z,17.41
2022-09-14T05:52:15.233Z,17.39
2022-09-14T05:53:15.150Z,17.38
2022-09-14T05:54:15.103Z,17.34
2022-09-14T05:55:15.053Z,17.38
2022-09-14T05:56:15.007Z,17.38
2022-09-14T05:57:14.967Z,17.42
2022-09-14T05:58:14.916Z,17.33
2022-09-14T05:59:14.856Z,17.23
2022-09-14T06:00:14.802Z,17.24
2022-09-14T06:01:14.751Z,17.30
2022-09-14T06:02:17.989Z,17.31
2022-09-14T06:03:14.747Z,17.29
2022-09-14T06:04:14.602Z,17.24
2022-09-14T06:05:14.601Z,17.27
2022-09-14T06:06:14.498Z,17.24
2022-09-14T06:07:18.705Z,17.23
2022-09-14T06:08:14.396Z,17.22
2022-09-14T06:09:14.342Z,17.19
2022-09-14T06:10:14.295Z,17.26
2022-09-14T06:11:14.243Z,17.22
2022-09-14T06:12:14.206Z,17.23
2022-09-14T06:13:14.153Z,17.20
2022-09-14T06:14:14.091Z,17.22
2022-09-14T06:15:14.040Z,17.23
2022-09-14T06:16:13.992Z,17.26
2022-09-14T06:17:13.952Z,17.24
2022-09-14T06:18:13.890Z,17.26
2022-09-14T06:19:13.970Z,17.26
2022-09-14T06:20:13.789Z,17.30
2022-09-14T06:21:13.737Z,17.26
2022-09-14T06:22:13.697Z,17.29
2022-09-14T06:23:13.640Z,17.27
2022-09-14T06:24:13.586Z,17.33
2022-09-14T06:25:13.534Z,17.31
2022-09-14T06:26:13.493Z,17.27
2022-09-14T06:27:13.446Z,17.29
2022-09-14T06:28:13.382Z,17.27
2022-09-14T06:29:13.342Z,17.27
2022-09-14T06:30:13.283Z,17.26
2022-09-14T06:31:13.231Z,17.27
2022-09-14T06:32:13.196Z,17.24
2022-09-14T06:33:13.129Z,17.30
2022-09-14T06:34:13.078Z,17.29
2022-09-14T06:35:13.028Z,17.26
2022-09-14T06:36:12.984Z,17.27
2022-09-14T06:37:12.940Z,17.24
2022-09-14T06:38:12.873Z,17.33
2022-09-14T06:39:12.829Z,17.27
2022-09-14T06:40:12.848Z,17.26
2022-09-14T06:41:12.723Z,17.30
2022-09-14T06:42:12.689Z,17.36
2022-09-14T06:43:12.623Z,17.38
2022-09-14T06:44:12.589Z,17.41
2022-09-14T06:45:12.522Z,17.31
2022-09-14T06:46:12.543Z,17.34
2022-09-14T06:47:12.422Z,17.38
2022-09-14T06:48:12.386Z,17.30
2022-09-14T06:49:12.320Z,17.27
2022-09-14T06:50:12.269Z,17.38
2022-09-14T06:51:12.221Z,17.39
2022-09-14T06:52:12.169Z,17.27
2022-09-14T06:53:12.288Z,17.38
2022-09-14T06:54:12.064Z,17.44
2022-09-14T06:55:12.016Z,17.42
2022-09-14T06:56:11.967Z,17.45
2022-09-14T06:57:11.913Z,17.49
2022-09-14T06:58:11.880Z,17.41
2022-09-14T06:59:11.816Z,17.45
2022-09-14T07:00:11.780Z,17.48
2022-09-14T07:01:11.712Z,17.42
2022-09-14T07:02:11.718Z,17.46
2022-09-14T07:03:11.725Z,17.46
2022-09-14T07:04:11.563Z,17.48
2022-09-14T07:05:11.528Z,17.44
2022-09-14T07:06:11.469Z,17.52
2022-09-14T07:07:11.409Z,17.54
2022-09-14T07:08:12.406Z,17.59
2022-09-14T07:09:11.311Z,17.72
2022-09-14T07:10:11.260Z,17.63
2022-09-14T07:11:11.227Z,17.68
2022-09-14T07:12:11.160Z,17.78
2022-09-14T07:13:11.132Z,17.71
2022-09-14T07:14:11.073Z,17.72
2022-09-14T07:15:11.012Z,17.79
2022-09-14T07:16:10.959Z,17.70
2022-09-14T07:17:10.909Z,17.65
2022-09-14T07:18:10.859Z,17.57
2022-09-14T07:19:10.821Z,17.63
2022-09-14T07:20:10.761Z,17.63
2022-09-14T07:21:10.710Z,17.57
2022-09-14T07:22:10.673Z,17.63
2022-09-14T07:23:10.690Z,17.54
2022-09-14T07:24:10.559Z,17.64
2022-09-14T07:25:10.507Z,17.68
2022-09-14T07:26:10.458Z,17.74
2022-09-14T07:27:10.444Z,17.72
2022-09-14T07:28:10.363Z,17.85
2022-09-14T07:29:10.308Z,17.86
2022-09-14T07:30:10.269Z,17.90
2022-09-14T07:31:10.274Z,17.98
2022-09-14T07:32:10.174Z,17.94
2022-09-14T07:33:10.107Z,18.01
2022-09-14T07:34:10.060Z,18.00
2022-09-14T07:35:10.017Z,17.98
2022-09-14T07:36:09.958Z,18.00
2022-09-14T07:37:09.925Z,18.01
2022-09-14T07:38:09.864Z,18.01
2022-09-14T07:39:09.816Z,18.03
2022-09-14T07:40:09.833Z,17.92
2022-09-14T07:41:09.709Z,17.98
2022-09-14T07:42:09.658Z,18.00
2022-09-14T07:43:09.622Z,17.97
2022-09-14T07:44:09.561Z,17.94
2022-09-14T07:45:09.512Z,17.94
2022-09-14T07:46:09.512Z,17.98
2022-09-14T07:47:09.424Z,18.08
2022-09-14T07:48:09.361Z,18.08
2022-09-14T07:49:09.334Z,18.10
2022-09-14T07:50:09.262Z,18.08
2022-09-14T07:51:09.212Z,18.10
2022-09-14T07:52:09.166Z,18.11
2022-09-14T07:53:09.136Z,18.08
2022-09-14T07:54:09.062Z,18.08
2022-09-14T07:55:09.094Z,18.01
2022-09-14T07:56:08.965Z,18.15
2022-09-14T07:57:08.912Z,18.11
2022-09-14T07:58:08.870Z,18.19
2022-09-14T07:59:37.714Z,18.16
2022-09-14T08:00:08.764Z,18.11
2022-09-14T08:01:08.938Z,18.11
2022-09-14T08:02:08.765Z,18.22
2022-09-14T08:03:08.615Z,18.19
2022-09-14T08:04:08.584Z,18.23
2022-09-14T08:05:08.516Z,18.28
2022-09-14T08:06:08.464Z,18.26
2022-09-14T08:07:08.421Z,18.38
2022-09-14T08:08:08.367Z,18.31
2022-09-14T08:09:08.316Z,18.37
2022-09-14T08:10:08.280Z,18.47
2022-09-14T08:11:08.300Z,18.40
2022-09-14T08:12:08.167Z,18.53
2022-09-14T08:13:08.118Z,18.47
2022-09-14T08:14:08.068Z,18.62
2022-09-14T08:15:08.032Z,18.56
2022-09-14T08:16:07.982Z,18.73
2022-09-14T08:17:07.918Z,18.62
2022-09-14T08:18:07.873Z,18.60
2022-09-14T08:19:07.834Z,18.59
2022-09-14T08:20:07.789Z,18.65
2022-09-14T08:21:07.722Z,18.71
2022-09-14T08:22:07.673Z,18.75
2022-09-14T08:23:07.622Z,18.75
2022-09-14T08:24:07.575Z,18.80
2022-09-14T08:25:07.541Z,18.86
2022-09-14T08:26:07.477Z,18.89
2022-09-14T08:27:07.466Z,18.89
2022-09-14T08:28:07.376Z,19.04
2022-09-14T08:29:07.325Z,18.99
2022-09-14T08:30:07.292Z,19.12
2022-09-14T08:31:07.231Z,19.19
2022-09-14T08:32:07.272Z,19.14
2022-09-14T08:33:07.130Z,19.11
2022-09-14T08:34:07.106Z,19.18
2022-09-14T08:35:07.053Z,19.27
2022-09-14T08:36:06.987Z,19.19
2022-09-14T08:37:06.947Z,19.30
2022-09-14T08:38:06.885Z,19.26
2022-09-14T08:39:06.835Z,19.24
2022-09-14T08:40:06.842Z,19.29
2022-09-14T08:41:06.733Z,19.22
2022-09-14T08:42:06.700Z,19.18
2022-09-14T08:43:06.637Z,19.16
2022-09-14T08:44:06.593Z,19.16
2022-09-14T08:45:09.749Z,19.12
2022-09-14T08:46:06.543Z,19.16
2022-09-14T08:47:06.455Z,19.19
2022-09-14T08:48:06.393Z,19.22
2022-09-14T08:49:06.347Z,19.21
2022-09-14T08:50:06.381Z,19.12
2022-09-14T08:51:06.247Z,19.02
2022-09-14T08:52:06.217Z,18.88
2022-09-14T08:53:06.151Z,18.98
2022-09-14T08:54:06.100Z,18.83
2022-09-14T08:55:06.048Z,18.77
2022-09-14T08:56:06.001Z,18.73
2022-09-14T08:57:05.950Z,18.60
2022-09-14T08:58:05.921Z,18.56
2022-09-14T08:59:05.857Z,18.58
2022-09-14T09:00:05.805Z,18.52
2022-09-14T09:01:05.798Z,18.53
2022-09-14T09:02:05.705Z,18.62
2022-09-14T09:03:05.670Z,18.66
2022-09-14T09:04:05.633Z,18.58
2022-09-14T09:05:05.560Z,18.59
2022-09-14T09:06:05.507Z,18.59
2022-09-14T09:07:05.467Z,18.52
2022-09-14T09:08:05.423Z,18.53
2022-09-14T09:09:05.360Z,18.47
2022-09-14T09:10:05.310Z,18.53
2022-09-14T09:11:05.259Z,18.53
2022-09-14T09:12:05.227Z,18.58
2022-09-14T09:13:05.161Z,18.60
2022-09-14T09:14:05.129Z,18.59
2022-09-14T09:15:05.133Z,18.55
2022-09-14T09:16:05.054Z,18.49
2022-09-14T09:17:04.964Z,18.56
2022-09-14T09:18:04.924Z,18.63
2022-09-14T09:19:04.883Z,18.44
2022-09-14T09:20:04.816Z,18.52
2022-09-14T09:21:04.768Z,18.50
2022-09-14T09:22:04.718Z,18.58
2022-09-14T09:23:13.335Z,18.47
2022-09-14T09:24:04.621Z,18.60
2022-09-14T09:25:04.584Z,18.56
2022-09-14T09:26:04.517Z,18.59
2022-09-14T09:27:04.471Z,18.59
2022-09-14T09:28:04.436Z,18.58
2022-09-14T09:29:04.371Z,18.52
2022-09-14T09:30:04.322Z,18.62
2022-09-14T09:31:04.395Z,18.65
2022-09-14T09:32:04.255Z,18.59
2022-09-14T09:33:04.190Z,18.59
2022-09-14T09:34:04.124Z,18.60
2022-09-14T09:35:04.076Z,18.62
2022-09-14T09:36:04.031Z,18.71
2022-09-14T09:37:03.973Z,18.71
2022-09-14T09:38:03.938Z,18.73
2022-09-14T09:39:05.348Z,18.71
2022-09-14T09:40:03.861Z,18.75
2022-09-14T09:41:03.788Z,18.80
2022-09-14T09:42:03.747Z,18.74
2022-09-14T09:43:03.682Z,18.77
2022-09-14T09:44:03.649Z,18.73
2022-09-14T09:45:04.318Z,18.74
2022-09-14T09:46:03.528Z,18.75
2022-09-14T09:47:03.584Z,18.73
2022-09-14T09:48:03.435Z,18.75
2022-09-14T09:49:03.379Z,18.81
2022-09-14T09:50:03.342Z,18.73
2022-09-14T09:51:03.283Z,18.78
2022-09-14T09:52:03.243Z,18.74
2022-09-14T09:53:06.679Z,18.75
2022-09-14T09:54:03.135Z,18.78
2022-09-14T09:55:03.085Z,18.73
2022-09-14T09:56:03.056Z,18.73
2022-09-14T09:57:02.978Z,18.70
2022-09-14T09:58:02.934Z,18.66
2022-09-14T09:59:02.883Z,18.62
2022-09-14T10:00:02.844Z,18.52
2022-09-14T10:01:02.861Z,18.44
2022-09-14T10:02:02.814Z,18.45
2022-09-14T10:03:02.686Z,18.45
2022-09-14T10:04:02.637Z,18.47
2022-09-14T10:05:02.587Z,18.43
2022-09-14T10:06:02.542Z,18.58
2022-09-14T10:07:02.506Z,18.53
2022-09-14T10:08:02.435Z,18.59
2022-09-14T10:09:02.387Z,18.50
2022-09-14T10:10:02.337Z,18.63
2022-09-14T10:11:02.307Z,18.56
2022-09-14T10:12:02.243Z,18.53
2022-09-14T10:13:02.192Z,18.55
2022-09-14T10:14:02.140Z,18.60
2022-09-14T10:15:02.091Z,18.63
2022-09-14T10:16:02.097Z,18.70
2022-09-14T10:17:01.989Z,18.73
2022-09-14T10:18:01.957Z,18.73
2022-09-14T10:19:01.900Z,18.86
2022-09-14T10:20:01.871Z,19.11
2022-09-14T10:21:01.802Z,19.34
2022-09-14T10:22:01.745Z,19.51
2022-09-14T10:23:01.713Z,19.45
2022-09-14T10:24:01.663Z,19.48
2022-09-14T10:25:01.599Z,19.47
2022-09-14T10:26:01.547Z,19.44
2022-09-14T10:27:01.495Z,19.49
2022-09-14T10:28:01.464Z,19.52
2022-09-14T10:29:01.400Z,19.63
2022-09-14T10:30:01.347Z,19.62
2022-09-14T10:31:01.367Z,19.44
2022-09-14T10:32:01.251Z,19.62
2022-09-14T10:33:01.218Z,19.76
2022-09-14T10:34:01.162Z,19.88
2022-09-14T10:35:01.104Z,19.99
2022-09-14T10:36:01.080Z,20.09
2022-09-14T10:37:01.007Z,20.11
2022-09-14T10:38:00.955Z,20.24
2022-09-14T10:39:00.906Z,20.21
2022-09-14T10:40:00.915Z,20.13
2022-09-14T10:41:00.821Z,20.14
2022-09-14T10:42:00.761Z,20.11
2022-09-14T10:43:00.718Z,19.99
2022-09-14T10:44:00.663Z,19.88
2022-09-14T10:45:00.614Z,19.76
2022-09-14T10:46:00.611Z,19.79
2022-09-14T10:47:04.595Z,19.79
2022-09-14T10:48:00.468Z,19.73
2022-09-14T10:49:00.431Z,19.74
2022-09-14T10:50:00.368Z,19.62
2022-09-14T10:51:00.320Z,19.63
2022-09-14T10:52:00.286Z,19.49
2022-09-14T10:53:00.223Z,19.34
2022-09-14T10:54:00.176Z,19.41
2022-09-14T10:55:00.125Z,19.51
2022-09-14T10:56:00.112Z,19.51
2022-09-14T10:57:00.032Z,19.45
2022-09-14T10:57:59.987Z,19.47
2022-09-14T10:58:59.931Z,19.39
2022-09-14T10:59:59.877Z,19.39
2022-09-14T11:00:59.843Z,19.27
2022-09-14T11:01:59.951Z,19.16
2022-09-14T11:02:59.781Z,19.16
2022-09-14T11:03:59.688Z,19.24
2022-09-14T11:04:59.650Z,19.16
2022-09-14T11:05:59.590Z,19.26
2022-09-14T11:06:59.599Z,19.18
2022-09-14T11:07:59.489Z,19.09
2022-09-14T11:08:59.470Z,19.07
2022-09-14T11:09:59.405Z,19.02
2022-09-14T11:10:59.340Z,18.99
2022-09-14T11:11:59.308Z,18.95
2022-09-14T11:12:59.244Z,18.93
2022-09-14T11:13:59.193Z,18.90
2022-09-14T11:14:59.160Z,18.92
2022-09-14T11:15:59.165Z,18.90
2022-09-14T11:16:59.048Z,19.00
2022-09-14T11:17:59.020Z,19.04
2022-09-14T11:18:58.953Z,19.11
2022-09-14T11:19:58.927Z,19.08
2022-09-14T11:20:58.850Z,19.08
2022-09-14T11:21:58.799Z,19.02
2022-09-14T11:22:58.784Z,18.96
2022-09-14T11:23:58.894Z,19.04
2022-09-14T11:24:58.654Z,19.02
2022-09-14T11:25:58.623Z,19.08
2022-09-14T11:26:58.583Z,19.08
2022-09-14T11:27:58.503Z,19.04
2022-09-14T11:28:58.463Z,18.96
2022-09-14T11:29:58.413Z,18.86
2022-09-14T11:30:58.426Z,18.92
2022-09-14T11:32:19.338Z,18.95
2022-09-14T11:32:58.253Z,18.86
2022-09-14T11:33:58.207Z,18.92
2022-09-14T11:34:58.236Z,18.90
2022-09-14T11:35:58.112Z,18.89
2022-09-14T11:36:58.129Z,18.92
2022-09-14T11:37:58.011Z,18.98
2022-09-14T11:38:58.041Z,18.88
2022-09-14T11:39:57.995Z,18.93
2022-09-14T11:40:57.871Z,18.92
2022-09-14T11:41:57.811Z,18.90
2022-09-14T11:42:57.761Z,18.99
2022-09-14T11:43:57.718Z,18.92
2022-09-14T11:44:57.676Z,18.92
2022-09-14T11:45:57.722Z,18.96
2022-09-14T11:47:00.613Z,18.93
2022-09-14T11:47:57.528Z,18.96
2022-09-14T11:48:57.750Z,18.93
2022-09-14T11:49:57.417Z,18.93
2022-09-14T11:50:57.386Z,18.83
2022-09-14T11:51:57.316Z,18.92
2022-09-14T11:52:57.271Z,18.86
2022-09-14T11:53:57.237Z,18.99
2022-09-14T11:54:57.169Z,18.93
2022-09-14T11:55:57.120Z,18.96
2022-09-14T11:56:57.071Z,18.96
2022-09-14T11:57:57.023Z,18.95
2022-09-14T11:58:56.972Z,19.00
2022-09-14T11:59:56.939Z,19.02
2022-09-14T12:00:56.890Z,18.99
2022-09-14T12:01:56.835Z,18.92
2022-09-14T12:02:56.806Z,18.98
2022-09-14T12:03:56.846Z,19.00
2022-09-14T12:04:56.679Z,19.02
2022-09-14T12:05:56.637Z,18.98
2022-09-14T12:06:56.592Z,19.02
2022-09-14T12:07:56.545Z,19.02
2022-09-14T12:08:56.477Z,18.99
2022-09-14T12:09:56.431Z,18.99
2022-09-14T12:10:56.381Z,18.96
2022-09-14T12:11:56.333Z,18.88
2022-09-14T12:12:56.295Z,18.88
2022-09-14T12:13:56.230Z,18.84
2022-09-14T12:14:56.182Z,18.88
2022-09-14T12:15:56.168Z,18.88
2022-09-14T12:16:56.084Z,18.96
2022-09-14T12:17:56.039Z,18.89
2022-09-14T12:18:56.000Z,18.98
2022-09-14T12:19:55.945Z,18.99
2022-09-14T12:20:55.887Z,18.95
2022-09-14T12:21:55.837Z,18.95
2022-09-14T12:22:55.785Z,18.92
2022-09-14T12:23:55.756Z,18.89
2022-09-14T12:24:55.691Z,18.95
2022-09-14T12:25:55.637Z,18.98
2022-09-14T12:26:55.589Z,19.02
2022-09-14T12:27:55.544Z,18.99
2022-09-14T12:28:55.507Z,19.07
2022-09-14T12:29:55.441Z,19.00
2022-09-14T12:30:55.449Z,18.99
2022-09-14T12:31:55.352Z,18.95
2022-09-14T12:32:55.291Z,18.96
2022-09-14T12:33:55.262Z,18.96
2022-09-14T12:34:55.199Z,19.04
2022-09-14T12:35:55.143Z,19.09
2022-09-14T12:36:55.420Z,19.12
2022-09-14T12:37:55.053Z,19.21
2022-09-14T12:38:55.011Z,19.16
2022-09-14T12:39:55.000Z,19.16
2022-09-14T12:40:54.916Z,19.15
2022-09-14T12:41:54.852Z,19.12
2022-09-14T12:42:54.813Z,19.11
2022-09-14T12:43:54.763Z,19.11
2022-09-14T12:44:54.702Z,19.14
2022-09-14T12:45:54.676Z,19.22
2022-09-14T12:46:54.602Z,19.21
2022-09-14T12:47:54.569Z,19.22
2022-09-14T12:48:54.508Z,19.16
2022-09-14T12:49:54.458Z,19.22
2022-09-14T12:50:54.415Z,19.22
2022-09-14T12:51:54.427Z,19.22